Sample Charts Sidebar
> Live data! Your data is on the web site for you to access within minutes
 
> Detailed data is easily downloaded as data file, which can be opened with Excel
 
> Charts can be customised if necessary
  Chart 1
 

(A maximum of 50 rows are displayed here. Use "Export Data" to see all rows in the date range.)
Date Collected Temperature
(Celcius)
Wind-chill
(Celcius)
Wind Speed
(km/hr)
Gust
(km/hr)
Wind Direction
(degrees)
2019-11-20 19:00 19.9 17.5 7 21 346
2019-11-20 18:00 20.0 16.6 9 19 347
2019-11-20 17:00 20.4 17.2 9 25 351
2019-11-20 16:00 20.7 18.5 7 21 5
2019-11-20 15:00 20.7 19.1 5 15 350
2019-11-20 14:00 20.4 16.5 10 28 348
2019-11-20 13:00 20.0 16.7 9 30 3
2019-11-20 12:00 19.9 16.8 8 23 6
2019-11-20 11:00 20.8 17.3 9 28 3
2019-11-20 10:00 20.5 17.4 8 21 13
2019-11-20 09:00 19.7 15.7 9 24 16
2019-11-20 08:00 18.9 14.9 9 23 25
2019-11-20 07:00 18.5 16.2 6 15 28
2019-11-20 06:00 18.4 15.4 7 20 28
2019-11-20 05:00 18.3 15.4 7 16 31
2019-11-20 04:00 18.3 13.8 10 22 19
2019-11-20 03:00 18.3 15.0 8 19 28
2019-11-20 02:00 18.5 15.1 8 22 13
2019-11-20 01:00 18.8 15.3 8 21 15
2019-11-20 00:00 18.8 15.4 8 22 355
2019-11-19 23:00 17.5 15.7 5 20 19
2019-11-19 22:00 17.7 15.6 6 13 20
2019-11-19 21:00 18.8 16.4 7 16 27
2019-11-19 20:00 18.8 15.7 8 20 353
2019-11-19 19:00 18.8 16.7 6 14 12
2019-11-19 18:00 18.8 15.4 8 23 6
2019-11-19 17:00 18.2 16.0 6 12 41
2019-11-19 16:00 17.8 17.8 2 5 17
2019-11-19 15:00 18.2 17.1 4 10 33
2019-11-19 14:00 18.2 17.5 3 11 331
2019-11-19 13:00 18.9 16.5 6 19 341
2019-11-19 12:00 19.4 16.6 7 15 2
2019-11-19 11:00 19.1 16.9 6 13 20
2019-11-19 10:00 19.4 16.6 7 16 24
2019-11-19 09:00 19.3 16.9 6 15 28
2019-11-19 08:00 18.7 16.6 6 15 24
2019-11-19 07:00 18.5 16.3 6 18 24
2019-11-19 06:00 18.4 16.9 5 11 30
2019-11-19 05:00 18.4 17.3 4 11 40
2019-11-19 04:00 18.4 17.1 5 11 35
2019-11-19 03:00 18.5 17.1 5 11 47
2019-11-19 02:00 18.7 18.0 3 8 24
2019-11-19 01:00 18.7 17.2 5 12 24
2019-11-19 00:00 18.8 17.7 4 12 16
2019-11-18 23:00 18.8 16.9 5 15 360
2019-11-18 22:00 18.3 17.3 4 12 9
2019-11-18 21:00 18.8 17.9 4 11 10
2019-11-18 20:00 18.7 16.9 5 12 2
2019-11-18 19:00 18.6 17.5 4 12 355
2019-11-18 18:00 18.6 17.9 4 11 20